sensor_id;sensor_type;location;lat;lon;timestamp;temperature;humidity
13880;DHT22;7010;48.200;16.332;2023-03-04T00:01:41;4.00;99.90
13880;DHT22;7010;48.200;16.332;2023-03-04T00:04:10;3.90;99.90
13880;DHT22;7010;48.200;16.332;2023-03-04T00:06:38;3.90;99.90
13880;DHT22;7010;48.200;16.332;2023-03-04T00:09:08;3.90;99.90
13880;DHT22;7010;48.200;16.332;2023-03-04T00:11:36;3.80;99.90
13880;DHT22;7010;48.200;16.332;2023-03-04T00:14:05;3.80;99.90
13880;DHT22;7010;48.200;16.332;2023-03-04T00:16:33;3.80;99.90
13880;DHT22;7010;48.200;16.332;2023-03-04T00:19:01;3.80;99.90
13880;DHT22;7010;48.200;16.332;2023-03-04T00:21:30;3.80;99.90
13880;DHT22;7010;48.200;16.332;2023-03-04T00:23:58;3.80;99.90
13880;DHT22;7010;48.200;16.332;2023-03-04T00:26:28;3.80;99.90
13880;DHT22;7010;48.200;16.332;2023-03-04T00:28:56;3.80;99.90
13880;DHT22;7010;48.200;16.332;2023-03-04T00:31:24;3.80;99.90
13880;DHT22;7010;48.200;16.332;2023-03-04T00:33:53;3.80;99.90
13880;DHT22;7010;48.200;16.332;2023-03-04T00:36:21;3.80;99.90
13880;DHT22;7010;48.200;16.332;2023-03-04T00:38:49;3.80;99.90
13880;DHT22;7010;48.200;16.332;2023-03-04T00:41:17;3.80;99.90
13880;DHT22;7010;48.200;16.332;2023-03-04T00:43:47;3.80;99.90
13880;DHT22;7010;48.200;16.332;2023-03-04T00:46:15;3.70;99.90
13880;DHT22;7010;48.200;16.332;2023-03-04T00:48:43;3.60;99.90
13880;DHT22;7010;48.200;16.332;2023-03-04T00:51:14;3.70;99.90
13880;DHT22;7010;48.200;16.332;2023-03-04T00:53:42;3.70;99.90
13880;DHT22;7010;48.200;16.332;2023-03-04T00:56:10;3.60;99.90
13880;DHT22;7010;48.200;16.332;2023-03-04T00:58:38;3.60;99.90
13880;DHT22;7010;48.200;16.332;2023-03-04T01:01:08;3.60;99.90
13880;DHT22;7010;48.200;16.332;2023-03-04T01:03:37;3.60;99.90
13880;DHT22;7010;48.200;16.332;2023-03-04T01:06:07;3.60;99.90
13880;DHT22;7010;48.200;16.332;2023-03-04T01:08:37;3.60;99.90
13880;DHT22;7010;48.200;16.332;2023-03-04T01:11:05;3.60;99.90
13880;DHT22;7010;48.200;16.332;2023-03-04T01:13:33;3.50;99.90
13880;DHT22;7010;48.200;16.332;2023-03-04T01:16:01;3.50;99.90
13880;DHT22;7010;48.200;16.332;2023-03-04T01:18:32;3.50;99.90
13880;DHT22;7010;48.200;16.332;2023-03-04T01:21:01;3.50;99.90
13880;DHT22;7010;48.200;16.332;2023-03-04T01:23:29;3.50;99.90
13880;DHT22;7010;48.200;16.332;2023-03-04T01:25:57;3.40;99.90
13880;DHT22;7010;48.200;16.332;2023-03-04T01:28:25;3.40;99.90
13880;DHT22;7010;48.200;16.332;2023-03-04T01:30:53;3.40;99.90
13880;DHT22;7010;48.200;16.332;2023-03-04T01:33:21;3.30;99.90
13880;DHT22;7010;48.200;16.332;2023-03-04T01:35:51;3.40;99.90
13880;DHT22;7010;48.200;16.332;2023-03-04T01:38:19;3.30;99.90
13880;DHT22;7010;48.200;16.332;2023-03-04T01:40:48;3.30;99.90
13880;DHT22;7010;48.200;16.332;2023-03-04T01:43:20;3.20;99.90
13880;DHT22;7010;48.200;16.332;2023-03-04T01:45:50;3.20;99.90
13880;DHT22;7010;48.200;16.332;2023-03-04T01:48:21;3.20;99.90
13880;DHT22;7010;48.200;16.332;2023-03-04T01:50:53;3.20;99.90
13880;DHT22;7010;48.200;16.332;2023-03-04T01:53:23;3.30;99.90
13880;DHT22;7010;48.200;16.332;2023-03-04T01:55:54;3.30;99.90
13880;DHT22;7010;48.200;16.332;2023-03-04T01:58:24;3.40;99.90
13880;DHT22;7010;48.200;16.332;2023-03-04T02:00:52;3.50;99.90
13880;DHT22;7010;48.200;16.332;2023-03-04T02:03:21;3.50;99.90
13880;DHT22;7010;48.200;16.332;2023-03-04T02:05:50;3.50;99.90
13880;DHT22;7010;48.200;16.332;2023-03-04T02:08:22;3.60;99.90
13880;DHT22;7010;48.200;16.332;2023-03-04T02:10:54;3.60;99.90
13880;DHT22;7010;48.200;16.332;2023-03-04T02:13:22;3.60;99.90
13880;DHT22;7010;48.200;16.332;2023-03-04T02:15:51;3.70;99.90
13880;DHT22;7010;48.200;16.332;2023-03-04T02:18:20;3.70;99.90
13880;DHT22;7010;48.200;16.332;2023-03-04T02:20:57;3.70;99.90
13880;DHT22;7010;48.200;16.332;2023-03-04T02:23:36;3.70;99.90
13880;DHT22;7010;48.200;16.332;2023-03-04T02:26:14;3.70;99.90
13880;DHT22;7010;48.200;16.332;2023-03-04T02:28:43;3.60;99.90
13880;DHT22;7010;48.200;16.332;2023-03-04T02:31:21;3.70;99.90
13880;DHT22;7010;48.200;16.332;2023-03-04T02:33:51;3.70;99.90
13880;DHT22;7010;48.200;16.332;2023-03-04T02:36:19;3.70;99.90
13880;DHT22;7010;48.200;16.332;2023-03-04T02:38:48;3.70;99.90
13880;DHT22;7010;48.200;16.332;2023-03-04T02:41:21;3.70;99.90
13880;DHT22;7010;48.200;16.332;2023-03-04T02:43:54;3.70;99.90
13880;DHT22;7010;48.200;16.332;2023-03-04T02:46:23;3.60;99.90
13880;DHT22;7010;48.200;16.332;2023-03-04T02:48:51;3.60;99.90
13880;DHT22;7010;48.200;16.332;2023-03-04T02:51:20;3.60;99.90
13880;DHT22;7010;48.200;16.332;2023-03-04T02:53:48;3.60;99.90
13880;DHT22;7010;48.200;16.332;2023-03-04T02:56:18;3.50;99.90
13880;DHT22;7010;48.200;16.332;2023-03-04T02:58:46;3.50;99.90
13880;DHT22;7010;48.200;16.332;2023-03-04T03:01:14;3.50;99.90
13880;DHT22;7010;48.200;16.332;2023-03-04T03:03:42;3.50;99.90
13880;DHT22;7010;48.200;16.332;2023-03-04T03:06:10;3.50;99.90
13880;DHT22;7010;48.200;16.332;2023-03-04T03:08:39;3.50;99.90
13880;DHT22;7010;48.200;16.332;2023-03-04T03:11:07;3.40;99.90
13880;DHT22;7010;48.200;16.332;2023-03-04T03:13:37;3.40;99.90
13880;DHT22;7010;48.200;16.332;2023-03-04T03:16:05;3.40;99.90
13880;DHT22;7010;48.200;16.332;2023-03-04T03:18:34;3.40;99.90
13880;DHT22;7010;48.200;16.332;2023-03-04T03:21:02;3.50;99.90
13880;DHT22;7010;48.200;16.332;2023-03-04T03:23:30;3.50;99.90
13880;DHT22;7010;48.200;16.332;2023-03-04T03:25:59;3.50;99.90
13880;DHT22;7010;48.200;16.332;2023-03-04T03:28:27;3.40;99.90
13880;DHT22;7010;48.200;16.332;2023-03-04T03:30:57;3.40;99.90
13880;DHT22;7010;48.200;16.332;2023-03-04T03:33:25;3.50;99.90
13880;DHT22;7010;48.200;16.332;2023-03-04T03:35:54;3.50;99.90
13880;DHT22;7010;48.200;16.332;2023-03-04T03:38:22;3.50;99.90
13880;DHT22;7010;48.200;16.332;2023-03-04T03:40:51;3.60;99.90
13880;DHT22;7010;48.200;16.332;2023-03-04T03:43:19;3.70;99.90
13880;DHT22;7010;48.200;16.332;2023-03-04T03:45:47;3.70;99.90
13880;DHT22;7010;48.200;16.332;2023-03-04T03:48:19;3.80;99.90
13880;DHT22;7010;48.200;16.332;2023-03-04T03:50:47;3.80;99.90
13880;DHT22;7010;48.200;16.332;2023-03-04T03:53:15;3.90;99.90
13880;DHT22;7010;48.200;16.332;2023-03-04T03:55:44;3.90;99.90
13880;DHT22;7010;48.200;16.332;2023-03-04T03:58:12;3.90;99.90
13880;DHT22;7010;48.200;16.332;2023-03-04T04:00:40;4.00;99.90
13880;DHT22;7010;48.200;16.332;2023-03-04T04:03:11;4.00;99.90
13880;DHT22;7010;48.200;16.332;2023-03-04T04:05:43;4.00;99.90
13880;DHT22;7010;48.200;16.332;2023-03-04T04:08:12;3.90;99.90
13880;DHT22;7010;48.200;16.332;2023-03-04T04:10:40;4.00;99.90
13880;DHT22;7010;48.200;16.332;2023-03-04T04:13:09;4.00;99.90
13880;DHT22;7010;48.200;16.332;2023-03-04T04:15:38;4.00;99.90
13880;DHT22;7010;48.200;16.332;2023-03-04T04:18:07;4.00;99.90
13880;DHT22;7010;48.200;16.332;2023-03-04T04:20:35;4.10;99.90
13880;DHT22;7010;48.200;16.332;2023-03-04T04:23:05;4.10;99.90
13880;DHT22;7010;48.200;16.332;2023-03-04T04:25:33;4.10;99.90
13880;DHT22;7010;48.200;16.332;2023-03-04T04:28:02;4.10;99.90
13880;DHT22;7010;48.200;16.332;2023-03-04T04:30:30;4.10;99.90
13880;DHT22;7010;48.200;16.332;2023-03-04T04:32:58;4.20;99.90
13880;DHT22;7010;48.200;16.332;2023-03-04T04:35:27;4.20;99.90
13880;DHT22;7010;48.200;16.332;2023-03-04T04:37:56;4.20;99.90
13880;DHT22;7010;48.200;16.332;2023-03-04T04:40:26;4.30;99.90
13880;DHT22;7010;48.200;16.332;2023-03-04T04:42:54;4.30;99.90
13880;DHT22;7010;48.200;16.332;2023-03-04T04:45:23;4.40;99.90
13880;DHT22;7010;48.200;16.332;2023-03-04T04:47:52;4.40;99.90
13880;DHT22;7010;48.200;16.332;2023-03-04T04:50:21;4.40;99.90
13880;DHT22;7010;48.200;16.332;2023-03-04T04:52:49;4.40;99.90
13880;DHT22;7010;48.200;16.332;2023-03-04T04:55:17;4.50;99.90
13880;DHT22;7010;48.200;16.332;2023-03-04T04:57:47;4.50;99.90
13880;DHT22;7010;48.200;16.332;2023-03-04T05:00:16;4.50;99.90
13880;DHT22;7010;48.200;16.332;2023-03-04T05:02:46;4.60;99.90
13880;DHT22;7010;48.200;16.332;2023-03-04T05:05:14;4.60;99.90
13880;DHT22;7010;48.200;16.332;2023-03-04T05:07:42;4.60;99.90
13880;DHT22;7010;48.200;16.332;2023-03-04T05:10:11;4.60;99.90
13880;DHT22;7010;48.200;16.332;2023-03-04T05:12:39;4.70;99.90
13880;DHT22;7010;48.200;16.332;2023-03-04T05:15:10;4.70;99.90
13880;DHT22;7010;48.200;16.332;2023-03-04T05:17:38;4.70;99.90
13880;DHT22;7010;48.200;16.332;2023-03-04T05:20:08;4.80;99.90
13880;DHT22;7010;48.200;16.332;2023-03-04T05:22:37;4.90;99.90
13880;DHT22;7010;48.200;16.332;2023-03-04T05:25:05;4.90;99.90
13880;DHT22;7010;48.200;16.332;2023-03-04T05:27:34;4.90;99.90
13880;DHT22;7010;48.200;16.332;2023-03-04T05:30:03;5.00;99.90
13880;DHT22;7010;48.200;16.332;2023-03-04T05:32:33;5.10;99.90
13880;DHT22;7010;48.200;16.332;2023-03-04T05:35:01;5.10;99.90
13880;DHT22;7010;48.200;16.332;2023-03-04T05:37:29;5.10;99.90
13880;DHT22;7010;48.200;16.332;2023-03-04T05:39:58;5.20;99.90
13880;DHT22;7010;48.200;16.332;2023-03-04T05:42:26;5.30;99.90
13880;DHT22;7010;48.200;16.332;2023-03-04T05:44:54;5.30;99.90
13880;DHT22;7010;48.200;16.332;2023-03-04T05:47:22;5.30;99.90
13880;DHT22;7010;48.200;16.332;2023-03-04T05:49:52;5.40;99.90
13880;DHT22;7010;48.200;16.332;2023-03-04T05:52:21;5.40;99.90
13880;DHT22;7010;48.200;16.332;2023-03-04T05:54:50;5.40;99.90
13880;DHT22;7010;48.200;16.332;2023-03-04T05:57:18;5.40;99.90
13880;DHT22;7010;48.200;16.332;2023-03-04T05:59:46;5.40;99.90
13880;DHT22;7010;48.200;16.332;2023-03-04T06:02:14;5.50;99.90
13880;DHT22;7010;48.200;16.332;2023-03-04T06:04:42;5.50;99.90
13880;DHT22;7010;48.200;16.332;2023-03-04T06:07:12;5.50;99.90
13880;DHT22;7010;48.200;16.332;2023-03-04T06:09:40;5.50;99.90
13880;DHT22;7010;48.200;16.332;2023-03-04T06:12:10;5.50;99.90
13880;DHT22;7010;48.200;16.332;2023-03-04T06:14:39;5.50;99.90
13880;DHT22;7010;48.200;16.332;2023-03-04T06:17:07;5.60;99.90
13880;DHT22;7010;48.200;16.332;2023-03-04T06:19:36;5.60;99.90
13880;DHT22;7010;48.200;16.332;2023-03-04T06:22:05;5.60;99.90
13880;DHT22;7010;48.200;16.332;2023-03-04T06:24:35;5.70;99.90
13880;DHT22;7010;48.200;16.332;2023-03-04T06:27:04;5.70;99.90
13880;DHT22;7010;48.200;16.332;2023-03-04T06:29:32;5.60;99.90
13880;DHT22;7010;48.200;16.332;2023-03-04T06:32:01;5.70;99.90
13880;DHT22;7010;48.200;16.332;2023-03-04T06:34:29;5.70;99.90
13880;DHT22;7010;48.200;16.332;2023-03-04T06:36:59;5.70;99.90
13880;DHT22;7010;48.200;16.332;2023-03-04T06:39:27;5.80;99.90
13880;DHT22;7010;48.200;16.332;2023-03-04T06:41:57;5.80;99.90
13880;DHT22;7010;48.200;16.332;2023-03-04T06:44:26;5.80;99.90
13880;DHT22;7010;48.200;16.332;2023-03-04T06:46:55;5.90;99.90
13880;DHT22;7010;48.200;16.332;2023-03-04T06:49:23;5.90;99.90
13880;DHT22;7010;48.200;16.332;2023-03-04T06:51:52;6.00;99.90
13880;DHT22;7010;48.200;16.332;2023-03-04T06:54:20;6.00;99.90
13880;DHT22;7010;48.200;16.332;2023-03-04T06:56:48;6.10;99.90
13880;DHT22;7010;48.200;16.332;2023-03-04T06:59:18;6.10;99.90
13880;DHT22;7010;48.200;16.332;2023-03-04T07:01:46;6.20;99.90
13880;DHT22;7010;48.200;16.332;2023-03-04T07:04:18;6.20;99.90
13880;DHT22;7010;48.200;16.332;2023-03-04T07:06:46;6.20;99.90
13880;DHT22;7010;48.200;16.332;2023-03-04T07:09:14;6.30;99.90
13880;DHT22;7010;48.200;16.332;2023-03-04T07:11:43;6.30;99.90
13880;DHT22;7010;48.200;16.332;2023-03-04T07:14:12;6.30;99.90
13880;DHT22;7010;48.200;16.332;2023-03-04T07:16:41;6.30;99.90
13880;DHT22;7010;48.200;16.332;2023-03-04T07:19:10;6.40;99.90
13880;DHT22;7010;48.200;16.332;2023-03-04T07:21:39;6.50;99.90
13880;DHT22;7010;48.200;16.332;2023-03-04T07:24:07;6.50;99.90
13880;DHT22;7010;48.200;16.332;2023-03-04T07:26:35;6.50;99.90
13880;DHT22;7010;48.200;16.332;2023-03-04T07:29:04;6.60;99.90
13880;DHT22;7010;48.200;16.332;2023-03-04T07:31:33;6.60;99.90
13880;DHT22;7010;48.200;16.332;2023-03-04T07:34:05;6.70;99.90
13880;DHT22;7010;48.200;16.332;2023-03-04T07:36:35;6.70;99.90
13880;DHT22;7010;48.200;16.332;2023-03-04T07:39:04;6.80;99.90
13880;DHT22;7010;48.200;16.332;2023-03-04T07:41:33;6.90;99.90
13880;DHT22;7010;48.200;16.332;2023-03-04T07:44:04;6.90;99.90
13880;DHT22;7010;48.200;16.332;2023-03-04T07:46:33;7.00;99.90
13880;DHT22;7010;48.200;16.332;2023-03-04T07:49:01;7.00;99.90
13880;DHT22;7010;48.200;16.332;2023-03-04T07:51:31;7.00;99.90
13880;DHT22;7010;48.200;16.332;2023-03-04T07:54:00;7.10;99.90
13880;DHT22;7010;48.200;16.332;2023-03-04T07:56:30;7.10;99.90
13880;DHT22;7010;48.200;16.332;2023-03-04T07:59:00;7.10;99.90
13880;DHT22;7010;48.200;16.332;2023-03-04T08:01:30;7.30;99.90
13880;DHT22;7010;48.200;16.332;2023-03-04T08:03:59;7.30;99.90
13880;DHT22;7010;48.200;16.332;2023-03-04T08:06:28;7.30;99.90
13880;DHT22;7010;48.200;16.332;2023-03-04T08:08:59;7.40;99.90
13880;DHT22;7010;48.200;16.332;2023-03-04T08:11:28;7.40;99.90
13880;DHT22;7010;48.200;16.332;2023-03-04T08:13:58;7.50;99.90
13880;DHT22;7010;48.200;16.332;2023-03-04T08:16:26;7.50;99.90
13880;DHT22;7010;48.200;16.332;2023-03-04T08:18:56;7.60;99.90
13880;DHT22;7010;48.200;16.332;2023-03-04T08:21:25;7.60;99.90
13880;DHT22;7010;48.200;16.332;2023-03-04T08:23:57;7.70;99.90
13880;DHT22;7010;48.200;16.332;2023-03-04T08:26:30;7.60;99.90
13880;DHT22;7010;48.200;16.332;2023-03-04T08:29:02;7.70;99.90
13880;DHT22;7010;48.200;16.332;2023-03-04T08:31:31;7.70;99.90
13880;DHT22;7010;48.200;16.332;2023-03-04T08:34:02;7.80;99.90
13880;DHT22;7010;48.200;16.332;2023-03-04T08:36:30;7.90;99.90
13880;DHT22;7010;48.200;16.332;2023-03-04T08:39:00;8.00;99.90
13880;DHT22;7010;48.200;16.332;2023-03-04T08:41:28;8.00;99.90
13880;DHT22;7010;48.200;16.332;2023-03-04T08:43:57;8.10;99.90
13880;DHT22;7010;48.200;16.332;2023-03-04T08:46:25;8.10;99.90
13880;DHT22;7010;48.200;16.332;2023-03-04T08:48:54;8.20;99.90
13880;DHT22;7010;48.200;16.332;2023-03-04T08:51:22;8.20;99.90
13880;DHT22;7010;48.200;16.332;2023-03-04T08:53:50;8.20;99.90
13880;DHT22;7010;48.200;16.332;2023-03-04T08:56:21;8.30;99.90
13880;DHT22;7010;48.200;16.332;2023-03-04T08:58:49;8.40;99.90
13880;DHT22;7010;48.200;16.332;2023-03-04T09:01:17;8.50;99.90
13880;DHT22;7010;48.200;16.332;2023-03-04T09:03:45;8.60;99.90
13880;DHT22;7010;48.200;16.332;2023-03-04T09:06:15;8.80;99.90
13880;DHT22;7010;48.200;16.332;2023-03-04T09:08:45;8.80;99.90
13880;DHT22;7010;48.200;16.332;2023-03-04T09:11:14;9.00;99.90
13880;DHT22;7010;48.200;16.332;2023-03-04T09:13:44;9.10;99.90
13880;DHT22;7010;48.200;16.332;2023-03-04T09:16:12;9.30;99.90
13880;DHT22;7010;48.200;16.332;2023-03-04T09:18:40;9.50;99.90
13880;DHT22;7010;48.200;16.332;2023-03-04T09:21:09;9.70;99.90
13880;DHT22;7010;48.200;16.332;2023-03-04T09:23:37;9.90;99.90
13880;DHT22;7010;48.200;16.332;2023-03-04T09:26:15;9.90;99.90
13880;DHT22;7010;48.200;16.332;2023-03-04T09:28:44;10.00;99.90
13880;DHT22;7010;48.200;16.332;2023-03-04T09:31:13;10.20;99.90
13880;DHT22;7010;48.200;16.332;2023-03-04T09:33:41;10.70;99.90
13880;DHT22;7010;48.200;16.332;2023-03-04T09:36:09;11.10;99.90
13880;DHT22;7010;48.200;16.332;2023-03-04T09:38:39;11.50;97.80
13880;DHT22;7010;48.200;16.332;2023-03-04T09:41:11;11.40;96.60
13880;DHT22;7010;48.200;16.332;2023-03-04T09:43:40;11.40;95.90
13880;DHT22;7010;48.200;16.332;2023-03-04T09:46:11;11.50;95.40
13880;DHT22;7010;48.200;16.332;2023-03-04T09:48:43;11.70;94.70
13880;DHT22;7010;48.200;16.332;2023-03-04T09:51:17;12.20;93.30
13880;DHT22;7010;48.200;16.332;2023-03-04T09:53:54;12.10;92.30
13880;DHT22;7010;48.200;16.332;2023-03-04T09:56:24;12.10;92.00
13880;DHT22;7010;48.200;16.332;2023-03-04T09:58:56;11.90;91.70
13880;DHT22;7010;48.200;16.332;2023-03-04T10:01:32;11.80;91.00
13880;DHT22;7010;48.200;16.332;2023-03-04T10:04:02;11.70;90.90
13880;DHT22;7010;48.200;16.332;2023-03-04T10:06:31;11.70;90.80
13880;DHT22;7010;48.200;16.332;2023-03-04T10:09:03;11.60;90.80
13880;DHT22;7010;48.200;16.332;2023-03-04T10:11:36;11.40;90.70
13880;DHT22;7010;48.200;16.332;2023-03-04T10:14:26;11.70;90.80
13880;DHT22;7010;48.200;16.332;2023-03-04T10:16:58;11.10;91.60
13880;DHT22;7010;48.200;16.332;2023-03-04T10:19:29;11.10;91.60
13880;DHT22;7010;48.200;16.332;2023-03-04T10:21:58;11.20;91.60
13880;DHT22;7010;48.200;16.332;2023-03-04T10:24:27;11.10;91.10
13880;DHT22;7010;48.200;16.332;2023-03-04T10:26:57;11.30;91.50
13880;DHT22;7010;48.200;16.332;2023-03-04T10:29:27;11.40;90.40
13880;DHT22;7010;48.200;16.332;2023-03-04T10:31:58;11.40;89.70
13880;DHT22;7010;48.200;16.332;2023-03-04T10:34:26;11.30;89.50
13880;DHT22;7010;48.200;16.332;2023-03-04T10:36:58;11.20;87.70
13880;DHT22;7010;48.200;16.332;2023-03-04T10:39:29;11.60;87.80
13880;DHT22;7010;48.200;16.332;2023-03-04T10:42:00;11.70;88.40
13880;DHT22;7010;48.200;16.332;2023-03-04T10:44:33;11.90;87.30
13880;DHT22;7010;48.200;16.332;2023-03-04T10:47:08;12.10;86.80
13880;DHT22;7010;48.200;16.332;2023-03-04T10:49:49;12.40;86.60
13880;DHT22;7010;48.200;16.332;2023-03-04T10:52:25;12.60;86.00
13880;DHT22;7010;48.200;16.332;2023-03-04T10:54:56;12.50;85.10
13880;DHT22;7010;48.200;16.332;2023-03-04T10:57:32;12.60;85.40
13880;DHT22;7010;48.200;16.332;2023-03-04T11:00:07;12.70;85.60
13880;DHT22;7010;48.200;16.332;2023-03-04T11:02:48;12.60;86.50
13880;DHT22;7010;48.200;16.332;2023-03-04T11:05:18;13.00;85.90
13880;DHT22;7010;48.200;16.332;2023-03-04T11:07:48;13.50;85.90
13880;DHT22;7010;48.200;16.332;2023-03-04T11:10:25;14.40;83.50
13880;DHT22;7010;48.200;16.332;2023-03-04T11:12:58;14.60;79.90
13880;DHT22;7010;48.200;16.332;2023-03-04T11:15:29;15.20;79.30
13880;DHT22;7010;48.200;16.332;2023-03-04T11:18:00;15.20;76.00
13880;DHT22;7010;48.200;16.332;2023-03-04T11:20:30;15.30;75.60
13880;DHT22;7010;48.200;16.332;2023-03-04T11:23:03;15.50;74.70
13880;DHT22;7010;48.200;16.332;2023-03-04T11:25:34;15.10;72.60
13880;DHT22;7010;48.200;16.332;2023-03-04T11:28:03;14.60;74.60
13880;DHT22;7010;48.200;16.332;2023-03-04T11:30:40;15.10;74.00
13880;DHT22;7010;48.200;16.332;2023-03-04T11:33:16;15.10;72.90
13880;DHT22;7010;48.200;16.332;2023-03-04T11:35:50;15.00;74.30
13880;DHT22;7010;48.200;16.332;2023-03-04T11:38:21;15.30;74.70
13880;DHT22;7010;48.200;16.332;2023-03-04T11:40:56;15.60;73.00
13880;DHT22;7010;48.200;16.332;2023-03-04T11:43:28;15.90;71.60
13880;DHT22;7010;48.200;16.332;2023-03-04T11:46:11;16.00;71.20
13880;DHT22;7010;48.200;16.332;2023-03-04T11:48:47;15.90;69.60
13880;DHT22;7010;48.200;16.332;2023-03-04T11:51:17;16.10;69.40
13880;DHT22;7010;48.200;16.332;2023-03-04T11:53:54;16.20;68.70
13880;DHT22;7010;48.200;16.332;2023-03-04T11:56:29;16.40;68.50
13880;DHT22;7010;48.200;16.332;2023-03-04T12:01:45;15.20;66.90
13880;DHT22;7010;48.200;16.332;2023-03-04T12:07:07;14.20;68.70
13880;DHT22;7010;48.200;16.332;2023-03-04T12:09:38;14.30;67.60
13880;DHT22;7010;48.200;16.332;2023-03-04T12:12:17;14.00;69.30
13880;DHT22;7010;48.200;16.332;2023-03-04T12:14:50;14.50;70.60
13880;DHT22;7010;48.200;16.332;2023-03-04T12:17:26;14.50;70.80
13880;DHT22;7010;48.200;16.332;2023-03-04T12:20:02;14.80;70.70
13880;DHT22;7010;48.200;16.332;2023-03-04T12:22:43;14.90;69.60
13880;DHT22;7010;48.200;16.332;2023-03-04T12:25:18;14.90;67.60
13880;DHT22;7010;48.200;16.332;2023-03-04T12:27:52;14.70;68.60
13880;DHT22;7010;48.200;16.332;2023-03-04T12:30:27;14.70;69.20
13880;DHT22;7010;48.200;16.332;2023-03-04T12:32:59;15.00;71.00
13880;DHT22;7010;48.200;16.332;2023-03-04T12:35:32;15.30;70.90
13880;DHT22;7010;48.200;16.332;2023-03-04T12:38:29;15.80;70.10
13880;DHT22;7010;48.200;16.332;2023-03-04T12:41:03;15.00;68.80
13880;DHT22;7010;48.200;16.332;2023-03-04T12:43:39;14.30;69.50
13880;DHT22;7010;48.200;16.332;2023-03-04T12:46:16;14.20;70.80
13880;DHT22;7010;48.200;16.332;2023-03-04T12:48:47;14.20;70.20
13880;DHT22;7010;48.200;16.332;2023-03-04T12:51:22;14.80;68.80
13880;DHT22;7010;48.200;16.332;2023-03-04T12:53:57;14.90;67.80
13880;DHT22;7010;48.200;16.332;2023-03-04T12:56:30;15.00;68.10
13880;DHT22;7010;48.200;16.332;2023-03-04T12:58:59;15.50;70.30
13880;DHT22;7010;48.200;16.332;2023-03-04T13:01:28;15.30;72.10
13880;DHT22;7010;48.200;16.332;2023-03-04T13:04:01;14.90;71.80
13880;DHT22;7010;48.200;16.332;2023-03-04T13:06:33;14.80;70.60
13880;DHT22;7010;48.200;16.332;2023-03-04T13:09:06;14.10;71.00
13880;DHT22;7010;48.200;16.332;2023-03-04T13:11:39;13.90;72.20
13880;DHT22;7010;48.200;16.332;2023-03-04T13:14:21;13.50;73.30
13880;DHT22;7010;48.200;16.332;2023-03-04T13:16:50;13.70;74.10
13880;DHT22;7010;48.200;16.332;2023-03-04T13:24:50;13.80;73.00
13880;DHT22;7010;48.200;16.332;2023-03-04T13:30:14;13.50;72.30
13880;DHT22;7010;48.200;16.332;2023-03-04T13:35:46;13.20;74.20
13880;DHT22;7010;48.200;16.332;2023-03-04T13:38:19;13.20;74.50
13880;DHT22;7010;48.200;16.332;2023-03-04T13:43:39;12.60;76.80
13880;DHT22;7010;48.200;16.332;2023-03-04T13:48:58;12.30;77.10
13880;DHT22;7010;48.200;16.332;2023-03-04T13:51:28;12.50;77.50
13880;DHT22;7010;48.200;16.332;2023-03-04T13:54:06;12.70;76.70
13880;DHT22;7010;48.200;16.332;2023-03-04T13:56:34;12.90;76.40
13880;DHT22;7010;48.200;16.332;2023-03-04T14:02:02;12.90;75.70
13880;DHT22;7010;48.200;16.332;2023-03-04T14:04:31;13.00;76.50
13880;DHT22;7010;48.200;16.332;2023-03-04T14:07:01;13.00;74.90
13880;DHT22;7010;48.200;16.332;2023-03-04T14:09:29;12.80;75.40
13880;DHT22;7010;48.200;16.332;2023-03-04T14:11:58;12.80;75.20
13880;DHT22;7010;48.200;16.332;2023-03-04T14:14:28;12.60;77.70
13880;DHT22;7010;48.200;16.332;2023-03-04T14:16:58;12.60;76.30
13880;DHT22;7010;48.200;16.332;2023-03-04T14:19:29;12.60;76.20
13880;DHT22;7010;48.200;16.332;2023-03-04T14:21:57;12.70;75.20
13880;DHT22;7010;48.200;16.332;2023-03-04T14:24:26;12.60;76.30
13880;DHT22;7010;48.200;16.332;2023-03-04T14:27:09;12.60;75.80
13880;DHT22;7010;48.200;16.332;2023-03-04T14:29:38;12.60;74.90
13880;DHT22;7010;48.200;16.332;2023-03-04T14:32:06;12.20;74.70
13880;DHT22;7010;48.200;16.332;2023-03-04T14:34:37;12.20;75.70
13880;DHT22;7010;48.200;16.332;2023-03-04T14:37:17;12.30;75.60
13880;DHT22;7010;48.200;16.332;2023-03-04T14:39:46;12.30;75.20
13880;DHT22;7010;48.200;16.332;2023-03-04T14:42:15;12.10;76.00
13880;DHT22;7010;48.200;16.332;2023-03-04T14:44:44;12.40;76.20
13880;DHT22;7010;48.200;16.332;2023-03-04T14:47:15;12.60;74.80
13880;DHT22;7010;48.200;16.332;2023-03-04T14:49:45;12.70;74.80
13880;DHT22;7010;48.200;16.332;2023-03-04T14:52:28;12.60;74.70
13880;DHT22;7010;48.200;16.332;2023-03-04T14:54:59;12.30;74.80
13880;DHT22;7010;48.200;16.332;2023-03-04T14:57:28;12.20;75.20
13880;DHT22;7010;48.200;16.332;2023-03-04T15:00:13;12.20;75.80
13880;DHT22;7010;48.200;16.332;2023-03-04T15:02:42;12.20;78.00
13880;DHT22;7010;48.200;16.332;2023-03-04T15:05:16;12.30;79.30
13880;DHT22;7010;48.200;16.332;2023-03-04T15:07:52;12.20;78.70
13880;DHT22;7010;48.200;16.332;2023-03-04T15:10:21;12.10;78.60
13880;DHT22;7010;48.200;16.332;2023-03-04T15:12:50;12.00;79.30
13880;DHT22;7010;48.200;16.332;2023-03-04T15:15:32;11.80;79.80
13880;DHT22;7010;48.200;16.332;2023-03-04T15:18:01;11.80;80.50
13880;DHT22;7010;48.200;16.332;2023-03-04T15:20:34;11.60;80.50
13880;DHT22;7010;48.200;16.332;2023-03-04T15:23:05;11.40;80.60
13880;DHT22;7010;48.200;16.332;2023-03-04T15:25:40;11.20;81.10
13880;DHT22;7010;48.200;16.332;2023-03-04T15:28:14;11.00;82.20
13880;DHT22;7010;48.200;16.332;2023-03-04T15:30:44;10.80;82.00
13880;DHT22;7010;48.200;16.332;2023-03-04T15:33:15;10.60;82.40
13880;DHT22;7010;48.200;16.332;2023-03-04T15:35:52;10.40;82.70
13880;DHT22;7010;48.200;16.332;2023-03-04T15:38:23;10.30;83.00
13880;DHT22;7010;48.200;16.332;2023-03-04T15:40:52;10.10;83.10
13880;DHT22;7010;48.200;16.332;2023-03-04T15:43:22;10.00;83.90
13880;DHT22;7010;48.200;16.332;2023-03-04T15:45:51;9.90;85.70
13880;DHT22;7010;48.200;16.332;2023-03-04T15:48:20;9.70;85.20
13880;DHT22;7010;48.200;16.332;2023-03-04T15:50:54;9.50;86.00
13880;DHT22;7010;48.200;16.332;2023-03-04T15:53:30;9.40;86.70
13880;DHT22;7010;48.200;16.332;2023-03-04T15:56:02;9.30;88.00
13880;DHT22;7010;48.200;16.332;2023-03-04T15:58:31;9.20;87.80
13880;DHT22;7010;48.200;16.332;2023-03-04T16:01:01;9.10;88.00
13880;DHT22;7010;48.200;16.332;2023-03-04T16:03:29;9.00;88.20
13880;DHT22;7010;48.200;16.332;2023-03-04T16:05:59;9.00;88.80
13880;DHT22;7010;48.200;16.332;2023-03-04T16:08:28;8.90;89.20
13880;DHT22;7010;48.200;16.332;2023-03-04T16:10:56;8.80;89.00
13880;DHT22;7010;48.200;16.332;2023-03-04T16:13:24;8.70;89.60
13880;DHT22;7010;48.200;16.332;2023-03-04T16:15:54;8.60;89.80
13880;DHT22;7010;48.200;16.332;2023-03-04T16:18:24;8.60;90.20
13880;DHT22;7010;48.200;16.332;2023-03-04T16:20:52;8.50;90.60
13880;DHT22;7010;48.200;16.332;2023-03-04T16:23:23;8.40;90.50
13880;DHT22;7010;48.200;16.332;2023-03-04T16:25:53;8.30;90.60